Time;durP1;ratioP1;P1;durP2;ratioP2;P2;SDS_P1;SDS_P2;PMS_P1;PMS_P2;Temp;Humidity;BMP_temperature;BMP_pressure;BME280_temperature;BME280_humidity;BME280_pressure;Samples;Min_cycle;Max_cycle;Signal;HPM_P1;HPM_P2
2022/09/08 00:03:12;;;;;;;10.25;5.35;;;21.20;98.00;;;;;;4960387;29;20062;-71
2022/09/08 00:09:00;;;;;;;10.38;5.45;;;21.10;98.00;;;;;;4960491;29;20034;-71
2022/09/08 00:15:43;;;;;;;10.55;4.85;;;21.00;98.00;;;;;;4960459;29;20058;-71
2022/09/08 00:21:57;;;;;;;4.68;3.83;;;21.00;98.00;;;;;;4948571;29;20070;-71
2022/09/08 00:27:44;;;;;;;5.82;3.90;;;21.00;98.00;;;;;;4940647;29;20173;-71
2022/09/08 00:36:56;;;;;;;4.47;2.50;;;20.70;98.00;;;;;;4940595;29;20132;-71
2022/09/08 00:46:08;;;;;;;4.30;2.42;;;20.40;98.00;;;;;;4940545;29;20031;-71
2022/09/08 00:51:58;;;;;;;4.30;1.95;;;20.20;98.00;;;;;;4940539;29;20022;-71
2022/09/08 00:57:46;;;;;;;5.30;2.83;;;20.00;98.00;;;;;;4940067;29;20059;-71
2022/09/08 01:20:40;;;;;;;4.63;2.60;;;20.40;98.00;;;;;;4940125;29;20099;-71
2022/09/08 01:26:49;;;;;;;4.95;1.95;;;20.70;97.50;;;;;;4939790;29;20434;-71
2022/09/08 01:32:42;;;;;;;3.85;2.03;;;20.70;96.30;;;;;;4939688;29;20446;-71
2022/09/08 01:38:30;;;;;;;7.57;1.95;;;20.60;98.00;;;;;;4939808;29;20339;-71
2022/09/08 01:44:18;;;;;;;4.07;1.83;;;20.60;97.20;;;;;;4939798;29;20034;-71
2022/09/08 01:50:06;;;;;;;9.32;2.03;;;20.80;95.60;;;;;;4939764;29;20049;-71
2022/09/08 01:55:54;;;;;;;5.68;2.08;;;20.90;95.50;;;;;;4939638;29;20067;-71
2022/09/08 02:01:42;;;;;;;8.18;1.67;;;20.90;96.10;;;;;;4939410;29;20502;-71
2022/09/08 02:07:36;;;;;;;3.70;1.60;;;20.80;96.10;;;;;;4939242;29;20043;-71
2022/09/08 02:13:24;;;;;;;6.50;1.80;;;20.70;96.50;;;;;;4943316;29;20106;-71
2022/09/08 02:19:12;;;;;;;7.72;3.47;;;20.60;97.70;;;;;;4943311;29;20399;-71
2022/09/08 02:29:26;;;;;;;9.68;3.40;;;20.60;98.00;;;;;;4943194;29;20119;-71
2022/09/08 02:35:51;;;;;;;6.35;2.22;;;20.60;98.00;;;;;;4943069;29;20030;-71
2022/09/08 02:41:39;;;;;;;4.10;2.55;;;20.50;98.00;;;;;;4942954;29;20114;-71
2022/09/08 02:47:27;;;;;;;7.18;2.70;;;20.20;98.00;;;;;;4943039;29;20442;-71
2022/09/08 02:53:15;;;;;;;5.03;2.70;;;20.00;98.00;;;;;;4942762;29;20026;-71
2022/09/08 02:59:03;;;;;;;7.40;4.20;;;20.00;98.00;;;;;;4942585;29;20034;-71
2022/09/08 03:05:46;;;;;;;11.82;4.38;;;20.10;98.00;;;;;;4942556;29;20039;-71
2022/09/08 03:11:34;;;;;;;7.45;2.60;;;20.40;98.00;;;;;;4942400;29;20022;-71
2022/09/08 03:17:22;;;;;;;10.07;3.15;;;20.50;98.00;;;;;;4942244;29;20091;-71
2022/09/08 03:26:31;;;;;;;7.32;3.55;;;20.60;98.00;;;;;;4954444;29;20347;-71
2022/09/08 03:35:46;;;;;;;8.18;3.28;;;20.40;98.00;;;;;;4941907;29;20332;-71
2022/09/08 03:41:34;;;;;;;4.35;2.83;;;20.30;98.00;;;;;;4941875;29;20031;-71
2022/09/08 03:47:22;;;;;;;12.05;3.40;;;20.10;98.00;;;;;;4941590;29;20039;-71
2022/09/08 04:00:19;;;;;;;6.88;2.88;;;20.30;98.00;;;;;;4941565;29;20369;-71
2022/09/08 04:06:07;;;;;;;4.60;2.70;;;20.50;98.00;;;;;;4941395;29;20111;-71
2022/09/08 04:11:55;;;;;;;5.43;2.53;;;20.60;98.00;;;;;;4941277;29;20031;-71
2022/09/08 04:17:43;;;;;;;4.38;2.28;;;20.50;98.00;;;;;;4941133;29;20047;-71
2022/09/08 04:23:31;;;;;;;6.68;3.25;;;20.50;98.00;;;;;;4941105;29;20492;-71
2022/09/08 04:33:33;;;;;;;5.57;3.00;;;20.60;98.00;;;;;;4940990;29;20401;-71
2022/09/08 04:39:20;;;;;;;5.85;4.05;;;20.50;98.00;;;;;;4940425;29;20027;-71
2022/09/08 04:45:54;;;;;;;6.35;3.92;;;20.40;98.00;;;;;;4940693;29;20038;-71
2022/09/08 04:51:42;;;;;;;6.93;4.47;;;20.30;98.00;;;;;;4940579;29;20051;-71
2022/09/08 04:57:30;;;;;;;6.85;3.78;;;20.20;98.00;;;;;;4940180;29;20063;-71
2022/09/08 05:03:18;;;;;;;5.90;3.83;;;20.10;98.00;;;;;;4940399;29;20087;-71
2022/09/08 05:09:06;;;;;;;6.55;4.50;;;20.00;98.00;;;;;;4940217;29;20096;-71
2022/09/08 05:14:53;;;;;;;8.80;5.30;;;19.90;98.00;;;;;;4940199;29;20127;-71
2022/09/08 05:20:41;;;;;;;10.73;6.68;;;19.50;98.00;;;;;;4940018;29;20038;-71
2022/09/08 05:26:29;;;;;;;63.38;9.30;;;19.30;98.00;;;;;;4939982;29;20050;-71
2022/09/08 05:35:38;;;;;;;6.07;5.05;;;19.10;98.00;;;;;;4959111;29;20363;-71
2022/09/08 05:41:26;;;;;;;11.18;5.90;;;19.10;98.00;;;;;;4958749;29;20086;-71
2022/09/08 05:50:42;;;;;;;6.30;4.13;;;19.30;98.00;;;;;;4958933;29;20026;-71
2022/09/08 05:56:29;;;;;;;4.72;3.30;;;19.70;98.00;;;;;;4958690;29;20438;-71
2022/09/08 06:05:48;;;;;;;5.53;2.63;;;20.20;98.00;;;;;;4958746;29;20031;-71
2022/09/08 06:18:20;;;;;;;4.40;2.25;;;19.80;98.00;;;;;;4958663;29;20095;-71
2022/09/08 06:38:01;;;;;;;5.63;3.20;;;18.90;98.00;;;;;;4958196;29;20115;-71
2022/09/08 06:44:11;;;;;;;2.85;2.15;;;18.70;98.00;;;;;;4958209;29;20034;-71
2022/09/08 06:53:24;;;;;;;6.50;2.30;;;19.00;98.00;;;;;;4958333;29;20126;-71
2022/09/08 06:59:36;;;;;;;3.53;1.65;;;18.90;98.00;;;;;;4961396;29;20027;-71
2022/09/08 07:06:04;;;;;;;3.08;1.55;;;18.70;98.00;;;;;;4961717;29;20039;-71
2022/09/08 07:12:03;;;;;;;2.05;0.82;;;18.80;98.00;;;;;;4961599;29;20446;-71
2022/09/08 07:17:58;;;;;;;2.60;1.10;;;18.80;98.00;;;;;;4961392;29;20548;-71
2022/09/08 07:27:12;;;;;;;2.33;1.40;;;18.90;98.00;;;;;;4960902;28;20034;-71
2022/09/08 07:33:20;;;;;;;6.95;1.80;;;18.80;98.00;;;;;;4961236;29;20407;-71
2022/09/08 07:39:21;;;;;;;5.18;1.60;;;18.60;98.00;;;;;;4960832;29;20042;-71
2022/09/08 07:45:56;;;;;;;5.13;1.30;;;18.60;98.00;;;;;;4961009;29;20086;-71
2022/09/08 07:59:17;;;;;;;2.40;1.27;;;18.70;98.00;;;;;;4960706;29;20050;-71
2022/09/08 08:05:55;;;;;;;4.38;1.92;;;18.80;98.00;;;;;;4960696;29;20034;-71
2022/09/08 08:11:57;;;;;;;4.60;1.00;;;19.00;98.00;;;;;;4960266;29;20050;-71
2022/09/08 08:17:51;;;;;;;1.52;0.85;;;19.30;98.00;;;;;;4960307;29;20106;-71
2022/09/08 08:37:06;;;;;;;1.08;0.77;;;19.50;98.00;;;;;;4959645;29;20074;-71
2022/09/08 08:46:30;;;;;;;1.98;1.10;;;19.70;97.60;;;;;;4959477;29;20035;-71
2022/09/08 08:52:44;;;;;;;1.90;1.10;;;19.90;98.00;;;;;;4959513;29;20059;-71
2022/09/08 08:58:50;;;;;;;5.85;1.80;;;19.90;98.00;;;;;;4959351;29;20087;-71
2022/09/08 09:08:24;;;;;;;1.63;1.20;;;19.80;98.00;;;;;;4959471;29;20094;-71
2022/09/08 09:20:59;;;;;;;3.60;1.80;;;19.70;98.00;;;;;;4959205;28;20038;-71
2022/09/08 09:26:50;;;;;;;3.63;1.30;;;19.70;98.00;;;;;;4959027;28;20083;-71
2022/09/08 09:33:06;;;;;;;5.05;1.50;;;19.90;98.00;;;;;;4959135;29;20031;-71
2022/09/08 09:38:55;;;;;;;2.95;1.10;;;20.30;98.00;;;;;;4958984;29;20123;-71
2022/09/08 09:45:05;;;;;;;3.28;1.52;;;21.70;98.00;;;;;;4959004;29;20400;-71
2022/09/08 09:51:11;;;;;;;2.75;1.30;;;21.90;98.00;;;;;;4958919;29;20043;-71
2022/09/08 09:57:33;;;;;;;5.43;2.10;;;21.60;98.00;;;;;;4958659;29;20046;-71
2022/09/08 10:03:48;;;;;;;3.05;1.17;;;21.60;98.00;;;;;;4958779;29;20079;-71
2022/09/08 10:10:02;;;;;;;2.60;1.13;;;22.30;98.00;;;;;;4958765;29;20031;-71
2022/09/08 10:23:00;;;;;;;6.28;2.40;;;21.80;98.00;;;;;;4958644;29;20124;-71
2022/09/08 10:29:13;;;;;;;3.53;2.60;;;21.60;98.00;;;;;;4943811;29;20483;-71
2022/09/08 10:35:56;;;;;;;3.60;2.58;;;21.90;98.00;;;;;;4943140;29;20463;-71
2022/09/08 10:42:02;;;;;;;5.47;2.95;;;23.30;98.00;;;;;;4943003;29;20111;-71
2022/09/08 10:51:41;;;;;;;2.95;2.03;;;23.60;95.00;;;;;;4942811;29;20026;-71
2022/09/08 11:07:57;;;;;;;3.50;1.38;;;23.30;93.30;;;;;;4942452;29;20030;-71
2022/09/08 11:38:19;;;;;;;3.05;1.20;;;25.50;91.50;;;;;;4960921;29;20421;-71
2022/09/08 11:51:07;;;;;;;3.10;1.52;;;25.60;93.40;;;;;;4960979;29;20030;-71
2022/09/08 12:00:23;;;;;;;4.50;1.70;;;26.30;90.10;;;;;;4960806;29;20045;-71
2022/09/08 12:10:13;;;;;;;5.93;3.40;;;24.90;92.60;;;;;;4960637;29;20029;-71
2022/09/08 12:23:14;;;;;;;5.22;2.28;;;25.50;90.20;;;;;;4940053;28;20034;-71
2022/09/08 12:59:32;;;;;;;6.72;3.22;;;25.00;91.90;;;;;;4959678;29;20094;-71
2022/09/08 13:16:00;;;;;;;5.47;3.08;;;24.80;92.80;;;;;;4957400;29;20479;-71
2022/09/08 13:22:11;;;;;;;3.60;2.38;;;24.80;92.10;;;;;;4957594;29;20482;-71
2022/09/08 13:28:17;;;;;;;8.27;3.00;;;24.60;90.40;;;;;;4957225;28;20038;-71
2022/09/08 13:41:08;;;;;;;3.50;2.45;;;24.70;91.10;;;;;;4957292;29;20047;-71
2022/09/08 13:51:10;;;;;;;2.90;1.90;;;24.70;92.80;;;;;;4958987;29;20026;-71
2022/09/08 13:57:07;;;;;;;3.22;1.98;;;24.90;90.00;;;;;;4958742;29;20086;-71
2022/09/08 14:06:18;;;;;;;12.43;2.03;;;24.30;90.20;;;;;;4958781;29;20323;-71
2022/09/08 14:16:00;;;;;;;7.10;1.90;;;24.00;94.30;;;;;;4962724;29;20331;-71
2022/09/08 14:22:08;;;;;;;3.03;1.80;;;24.20;91.50;;;;;;4962547;29;20023;-71
2022/09/08 14:28:16;;;;;;;6.55;2.40;;;24.40;93.70;;;;;;4962217;28;20136;-71
2022/09/08 14:37:35;;;;;;;6.15;2.25;;;24.10;92.90;;;;;;4962021;29;20042;-71
2022/09/08 14:43:49;;;;;;;3.90;2.10;;;24.20;90.40;;;;;;4962135;29;20115;-71
2022/09/08 14:50:02;;;;;;;3.00;1.92;;;23.90;90.60;;;;;;4962116;29;20047;-71
2022/09/08 14:56:17;;;;;;;4.65;1.88;;;23.40;92.20;;;;;;4961969;29;20078;-71
2022/09/08 15:02:24;;;;;;;3.95;1.63;;;23.20;93.20;;;;;;4961613;29;20030;-71
2022/09/08 15:08:15;;;;;;;4.15;1.67;;;23.20;92.00;;;;;;4961691;29;20323;-71
2022/09/08 15:14:12;;;;;;;2.65;1.48;;;23.40;92.60;;;;;;4961655;29;20074;-71
2022/09/08 15:23:34;;;;;;;2.15;1.05;;;23.70;90.00;;;;;;4961479;29;20022;-71
2022/09/08 15:29:55;;;;;;;3.88;1.73;;;23.80;89.10;;;;;;4949938;29;20066;-71
2022/09/08 15:36:13;;;;;;;7.00;1.35;;;23.50;89.40;;;;;;4942112;29;20325;-71
2022/09/08 15:48:51;;;;;;;3.65;1.23;;;23.00;92.10;;;;;;4941822;29;20094;-71
2022/09/08 16:36:16;;;;;;;1.92;1.50;;;22.00;95.60;;;;;;4920256;29;20510;-71
2022/09/08 16:46:16;;;;;;;2.75;1.02;;;21.90;97.30;;;;;;4919792;29;20035;-71
2022/09/08 16:52:25;;;;;;;3.83;0.90;;;21.80;97.70;;;;;;4919895;29;20055;-71
2022/09/08 16:58:27;;;;;;;2.10;1.10;;;21.70;97.80;;;;;;4940212;29;20099;-71
2022/09/08 17:07:38;;;;;;;3.28;1.42;;;21.50;98.00;;;;;;4940342;29;20091;-71
2022/09/08 17:17:10;;;;;;;1.80;1.10;;;21.30;98.00;;;;;;4940028;29;20046;-71
2022/09/08 17:26:34;;;;;;;6.72;1.27;;;21.10;98.00;;;;;;4939721;29;20115;-71
2022/09/08 17:40:16;;;;;;;1.63;1.08;;;20.70;98.00;;;;;;4959170;29;20074;-71
2022/09/08 17:46:32;;;;;;;3.45;1.45;;;20.40;98.00;;;;;;4958675;28;20094;-71
2022/09/08 17:52:45;;;;;;;7.30;1.88;;;20.40;98.00;;;;;;4958929;29;20082;-71
2022/09/08 17:58:38;;;;;;;4.43;1.25;;;20.20;98.00;;;;;;4958535;29;20033;-71
2022/09/08 18:07:51;;;;;;;2.60;1.35;;;20.10;98.00;;;;;;4958514;29;20077;-71
2022/09/08 18:13:46;;;;;;;7.18;1.88;;;20.10;98.00;;;;;;4958771;29;20066;-71
2022/09/08 18:19:37;;;;;;;6.13;1.65;;;20.00;98.00;;;;;;4958735;29;20050;-71
2022/09/08 18:25:36;;;;;;;7.05;1.30;;;19.80;98.00;;;;;;4958407;29;20070;-71
2022/09/08 18:31:53;;;;;;;3.08;1.67;;;19.70;98.00;;;;;;4946688;29;20090;-71
2022/09/08 18:37:53;;;;;;;5.15;1.90;;;19.70;98.00;;;;;;4939088;29;20035;-71
2022/09/08 18:47:53;;;;;;;7.75;2.75;;;19.60;98.00;;;;;;4939189;29;20328;-71
2022/09/08 18:57:24;;;;;;;7.22;2.25;;;19.80;98.00;;;;;;4942642;29;20340;-71
2022/09/08 19:07:03;;;;;;;7.50;2.30;;;19.90;98.00;;;;;;4884253;29;20465;-71
2022/09/08 19:36:45;;;;;;;3.80;1.50;;;19.80;98.00;;;;;;4940338;29;20043;-71
2022/09/08 19:46:12;;;;;;;9.00;2.20;;;19.70;98.00;;;;;;4940193;29;20066;-71
2022/09/08 19:52:00;;;;;;;4.88;2.45;;;19.70;98.00;;;;;;4939877;29;20089;-71
2022/09/08 19:57:58;;;;;;;4.53;1.70;;;19.80;98.00;;;;;;4957567;29;20041;-71
2022/09/08 20:04:09;;;;;;;6.20;1.92;;;19.70;98.00;;;;;;4960752;29;20022;-71
2022/09/08 20:10:20;;;;;;;4.40;1.48;;;19.70;98.00;;;;;;4960713;29;20070;-71
2022/09/08 20:16:15;;;;;;;4.07;1.77;;;19.50;98.00;;;;;;4920238;29;20455;-71
2022/09/08 20:22:21;;;;;;;4.47;1.05;;;19.60;98.00;;;;;;4960040;29;20026;-71
2022/09/08 20:35:24;;;;;;;4.45;1.38;;;20.10;98.00;;;;;;4940803;29;20152;-71
2022/09/08 20:41:32;;;;;;;3.42;1.48;;;20.30;98.00;;;;;;4940907;29;20026;-71
2022/09/08 20:50:58;;;;;;;3.50;1.10;;;20.20;98.00;;;;;;4940758;29;20087;-71
2022/09/08 20:57:01;;;;;;;9.80;2.30;;;20.00;98.00;;;;;;4940577;29;20086;-71
2022/09/08 21:06:27;;;;;;;3.10;1.17;;;20.00;97.60;;;;;;4940483;29;20427;-71
2022/09/08 21:12:18;;;;;;;6.80;1.40;;;19.90;97.40;;;;;;4940335;29;20070;-71
2022/09/08 21:26:01;;;;;;;4.15;1.40;;;19.60;98.00;;;;;;4881582;29;20084;-71
2022/09/08 21:38:43;;;;;;;;;;;19.90;97.50;;;;;;4900400;29;20097;-71
2022/09/08 21:51:38;;;;;;;6.97;1.42;;;20.20;95.00;;;;;;4958743;29;20082;-71
2022/09/08 21:57:29;;;;;;;8.02;2.20;;;20.20;96.70;;;;;;4958712;29;20450;-71
2022/09/08 22:06:43;;;;;;;4.68;1.30;;;19.60;98.00;;;;;;4958802;29;20083;-71
2022/09/08 22:26:36;;;;;;;5.78;2.38;;;19.30;98.00;;;;;;4956587;29;20071;-71
2022/09/08 22:42:42;;;;;;;6.10;1.40;;;19.10;98.00;;;;;;4941295;29;20035;-71
2022/09/08 22:48:41;;;;;;;3.05;1.50;;;19.20;98.00;;;;;;4941163;29;20083;-71
2022/09/08 22:55:03;;;;;;;3.55;1.60;;;19.20;98.00;;;;;;4942868;29;20027;-71
2022/09/08 23:01:15;;;;;;;5.55;1.70;;;19.20;98.00;;;;;;4942535;29;20428;-71
2022/09/08 23:07:20;;;;;;;6.28;1.63;;;19.30;98.00;;;;;;4921837;29;20084;-71
2022/09/08 23:13:31;;;;;;;7.80;1.67;;;19.50;98.00;;;;;;4942527;29;20332;-71
2022/09/08 23:29:36;;;;;;;4.05;1.60;;;19.80;97.20;;;;;;4941964;29;20031;-71
2022/09/08 23:32:42;;;;;;;5.85;1.40;;;19.90;96.60;;;;;;4947688;29;20052;-71
2022/09/08 23:38:33;;;;;;;4.70;1.27;;;20.00;96.90;;;;;;4960980;29;20038;-71
2022/09/08 23:47:49;;;;;;;7.82;2.03;;;19.70;97.70;;;;;;4961116;29;20311;-71
2022/09/08 23:56:59;;;;;;;8.38;1.80;;;19.40;98.00;;;;;;4960888;29;20046;-71
